sensor_id;sensor_type;location;lat;lon;timestamp;pressure;altitude;pressure_sealevel;temperature;humidity
16451;BME280;12243;42.708;23.310;2024-03-23T00:53:29;95070.44;;;5.42;76.15
16451;BME280;12243;42.708;23.310;2024-03-23T00:55:54;95074.97;;;5.38;76.28
16451;BME280;12243;42.708;23.310;2024-03-23T00:58:21;95076.56;;;5.27;75.93
16451;BME280;12243;42.708;23.310;2024-03-23T01:00:47;95079.78;;;5.16;76.32
16451;BME280;12243;42.708;23.310;2024-03-23T01:03:14;95077.50;;;5.11;75.84
16451;BME280;12243;42.708;23.310;2024-03-23T01:05:40;95071.81;;;4.92;76.88
16451;BME280;12243;42.708;23.310;2024-03-23T01:08:07;95066.06;;;5.01;76.75
16451;BME280;12243;42.708;23.310;2024-03-23T01:10:34;95065.91;;;4.90;77.19
16451;BME280;12243;42.708;23.310;2024-03-23T01:13:01;95060.19;;;4.85;77.81
16451;BME280;12243;42.708;23.310;2024-03-23T01:15:27;95061.66;;;4.89;78.02
16451;BME280;12243;42.708;23.310;2024-03-23T01:17:53;95068.13;;;4.96;77.78
16451;BME280;12243;42.708;23.310;2024-03-23T01:20:19;95068.66;;;4.87;77.62
16451;BME280;12243;42.708;23.310;2024-03-23T01:22:46;95068.47;;;4.90;77.57
16451;BME280;12243;42.708;23.310;2024-03-23T01:25:12;95067.53;;;4.91;77.59
16451;BME280;12243;42.708;23.310;2024-03-23T01:27:40;95076.97;;;4.92;77.94
16451;BME280;12243;42.708;23.310;2024-03-23T01:30:07;95074.56;;;4.74;79.17
16451;BME280;12243;42.708;23.310;2024-03-23T01:32:34;95071.59;;;4.66;79.35
16451;BME280;12243;42.708;23.310;2024-03-23T01:35:00;95076.56;;;4.69;79.02
16451;BME280;12243;42.708;23.310;2024-03-23T01:37:26;95071.22;;;4.58;79.33
16451;BME280;12243;42.708;23.310;2024-03-23T01:39:52;95070.63;;;4.39;80.80
16451;BME280;12243;42.708;23.310;2024-03-23T01:42:19;95066.22;;;4.41;81.16
16451;BME280;12243;42.708;23.310;2024-03-23T01:44:47;95061.72;;;4.44;81.56
16451;BME280;12243;42.708;23.310;2024-03-23T01:47:14;95071.25;;;4.28;81.73
16451;BME280;12243;42.708;23.310;2024-03-23T01:49:40;95067.19;;;4.10;82.16
16451;BME280;12243;42.708;23.310;2024-03-23T01:52:08;95068.13;;;3.93;83.44
16451;BME280;12243;42.708;23.310;2024-03-23T01:54:35;95067.03;;;3.97;84.46
16451;BME280;12243;42.708;23.310;2024-03-23T01:57:02;95068.16;;;4.07;84.33
16451;BME280;12243;42.708;23.310;2024-03-23T01:59:28;95067.81;;;4.13;83.28
16451;BME280;12243;42.708;23.310;2024-03-23T02:01:56;95066.13;;;3.98;83.27
16451;BME280;12243;42.708;23.310;2024-03-23T02:04:23;95068.63;;;3.99;84.23
16451;BME280;12243;42.708;23.310;2024-03-23T02:06:49;95072.91;;;3.85;84.24
16451;BME280;12243;42.708;23.310;2024-03-23T02:09:15;95074.03;;;3.95;84.09
16451;BME280;12243;42.708;23.310;2024-03-23T02:11:42;95066.13;;;3.98;83.88
16451;BME280;12243;42.708;23.310;2024-03-23T02:14:08;95074.53;;;3.86;84.91
16451;BME280;12243;42.708;23.310;2024-03-23T02:16:35;95073.94;;;3.66;85.75
16451;BME280;12243;42.708;23.310;2024-03-23T02:19:02;95077.38;;;3.81;85.33
16451;BME280;12243;42.708;23.310;2024-03-23T02:21:29;95086.53;;;3.71;85.61
16451;BME280;12243;42.708;23.310;2024-03-23T02:23:59;95075.31;;;3.72;85.59
16451;BME280;12243;42.708;23.310;2024-03-23T02:26:26;95079.97;;;3.65;86.33
16451;BME280;12243;42.708;23.310;2024-03-23T02:28:51;95085.19;;;3.79;85.11
16451;BME280;12243;42.708;23.310;2024-03-23T02:31:18;95084.41;;;3.63;86.05
16451;BME280;12243;42.708;23.310;2024-03-23T02:33:44;95086.97;;;3.47;86.53
16451;BME280;12243;42.708;23.310;2024-03-23T02:36:11;95087.28;;;3.41;86.98
16451;BME280;12243;42.708;23.310;2024-03-23T02:38:37;95078.59;;;3.44;87.50
16451;BME280;12243;42.708;23.310;2024-03-23T02:41:05;95073.94;;;3.50;86.95
16451;BME280;12243;42.708;23.310;2024-03-23T02:43:31;95073.28;;;3.47;86.90
16451;BME280;12243;42.708;23.310;2024-03-23T02:45:58;95075.34;;;3.40;87.38
16451;BME280;12243;42.708;23.310;2024-03-23T02:48:24;95078.25;;;3.50;86.84
16451;BME280;12243;42.708;23.310;2024-03-23T02:50:51;95074.25;;;3.60;85.73
16451;BME280;12243;42.708;23.310;2024-03-23T02:53:16;95072.59;;;3.43;86.35
16451;BME280;12243;42.708;23.310;2024-03-23T02:55:43;95070.63;;;3.32;86.76
16451;BME280;12243;42.708;23.310;2024-03-23T02:58:11;95068.78;;;3.34;87.53
16451;BME280;12243;42.708;23.310;2024-03-23T03:00:38;95078.09;;;3.53;86.91
16451;BME280;12243;42.708;23.310;2024-03-23T03:03:04;95072.94;;;3.53;85.76
16451;BME280;12243;42.708;23.310;2024-03-23T03:05:32;95074.25;;;3.44;86.32
16451;BME280;12243;42.708;23.310;2024-03-23T03:07:58;95075.50;;;3.53;86.34
16451;BME280;12243;42.708;23.310;2024-03-23T03:10:25;95072.56;;;3.59;84.89
16451;BME280;12243;42.708;23.310;2024-03-23T03:12:51;95067.97;;;3.50;85.75
16451;BME280;12243;42.708;23.310;2024-03-23T03:15:19;95067.97;;;3.50;85.40
16451;BME280;12243;42.708;23.310;2024-03-23T03:17:45;95081.22;;;3.58;84.78
16451;BME280;12243;42.708;23.310;2024-03-23T03:20:12;95077.44;;;3.49;84.45
16451;BME280;12243;42.708;23.310;2024-03-23T03:22:39;95069.78;;;3.48;84.91
16451;BME280;12243;42.708;23.310;2024-03-23T03:25:06;95076.59;;;3.49;84.75
16451;BME280;12243;42.708;23.310;2024-03-23T03:27:33;95083.56;;;3.47;84.98
16451;BME280;12243;42.708;23.310;2024-03-23T03:30:00;95081.31;;;3.41;84.87
16451;BME280;12243;42.708;23.310;2024-03-23T03:32:29;95077.09;;;3.40;85.47
16451;BME280;12243;42.708;23.310;2024-03-23T03:34:56;95074.09;;;3.47;84.97
16451;BME280;12243;42.708;23.310;2024-03-23T03:37:22;95080.22;;;3.45;84.74
16451;BME280;12243;42.708;23.310;2024-03-23T03:39:49;95076.59;;;3.33;84.65
16451;BME280;12243;42.708;23.310;2024-03-23T03:42:15;95077.41;;;3.33;85.52
16451;BME280;12243;42.708;23.310;2024-03-23T03:44:42;95078.75;;;3.41;84.78
16451;BME280;12243;42.708;23.310;2024-03-23T03:47:08;95081.47;;;3.38;85.16
16451;BME280;12243;42.708;23.310;2024-03-23T03:49:36;95080.81;;;3.34;85.36
16451;BME280;12243;42.708;23.310;2024-03-23T03:52:02;95081.16;;;3.60;84.11
16451;BME280;12243;42.708;23.310;2024-03-23T03:54:29;95078.81;;;3.55;83.45
16451;BME280;12243;42.708;23.310;2024-03-23T03:56:55;95072.94;;;3.53;83.54
16451;BME280;12243;42.708;23.310;2024-03-23T03:59:22;95076.66;;;3.63;82.79
16451;BME280;12243;42.708;23.310;2024-03-23T04:01:48;95072.78;;;3.56;83.29
16451;BME280;12243;42.708;23.310;2024-03-23T04:04:14;95073.72;;;3.69;83.12
16451;BME280;12243;42.708;23.310;2024-03-23T04:06:43;95070.09;;;3.57;83.79
16451;BME280;12243;42.708;23.310;2024-03-23T04:09:10;95082.81;;;3.61;83.44
16451;BME280;12243;42.708;23.310;2024-03-23T04:11:37;95078.59;;;3.60;83.28
16451;BME280;12243;42.708;23.310;2024-03-23T04:14:04;95078.09;;;3.53;83.67
16451;BME280;12243;42.708;23.310;2024-03-23T04:16:33;95088.03;;;3.59;83.58
16451;BME280;12243;42.708;23.310;2024-03-23T04:19:00;95087.47;;;3.54;83.44
16451;BME280;12243;42.708;23.310;2024-03-23T04:21:26;95089.78;;;3.58;83.29
16451;BME280;12243;42.708;23.310;2024-03-23T04:23:54;95095.34;;;3.51;83.86
16451;BME280;12243;42.708;23.310;2024-03-23T04:26:20;95088.22;;;3.56;84.04
16451;BME280;12243;42.708;23.310;2024-03-23T04:28:47;95087.03;;;3.62;83.62
16451;BME280;12243;42.708;23.310;2024-03-23T04:31:13;95085.44;;;3.59;83.90
16451;BME280;12243;42.708;23.310;2024-03-23T04:33:39;95084.56;;;3.60;83.71
16451;BME280;12243;42.708;23.310;2024-03-23T04:36:05;95086.72;;;3.68;83.56
16451;BME280;12243;42.708;23.310;2024-03-23T04:38:33;95087.69;;;3.65;83.34
16451;BME280;12243;42.708;23.310;2024-03-23T04:41:01;95083.25;;;3.53;83.75
16451;BME280;12243;42.708;23.310;2024-03-23T04:43:28;95089.06;;;3.56;83.78
16451;BME280;12243;42.708;23.310;2024-03-23T04:45:55;95092.84;;;3.65;83.38
16451;BME280;12243;42.708;23.310;2024-03-23T04:48:23;95096.34;;;3.64;82.93
16451;BME280;12243;42.708;23.310;2024-03-23T04:50:54;95103.16;;;3.65;83.18
16451;BME280;12243;42.708;23.310;2024-03-23T04:53:23;95100.66;;;3.64;83.49
16451;BME280;12243;42.708;23.310;2024-03-23T04:55:54;95103.16;;;3.65;83.60
16451;BME280;12243;42.708;23.310;2024-03-23T04:58:23;95105.22;;;3.74;83.18
16451;BME280;12243;42.708;23.310;2024-03-23T05:00:53;95109.28;;;3.78;83.32
16451;BME280;12243;42.708;23.310;2024-03-23T05:03:20;95103.03;;;3.82;82.25
16451;BME280;12243;42.708;23.310;2024-03-23T05:05:46;95101.78;;;3.90;81.90
16451;BME280;12243;42.708;23.310;2024-03-23T05:08:13;95103.75;;;4.00;81.40
16451;BME280;12243;42.708;23.310;2024-03-23T05:10:39;95096.94;;;4.15;80.75
16451;BME280;12243;42.708;23.310;2024-03-23T05:13:07;95098.53;;;4.32;79.39
16451;BME280;12243;42.708;23.310;2024-03-23T05:15:34;95103.72;;;4.46;78.69
16451;BME280;12243;42.708;23.310;2024-03-23T05:18:01;95095.34;;;4.43;78.52
16451;BME280;12243;42.708;23.310;2024-03-23T05:20:27;95097.94;;;4.43;78.02
16451;BME280;12243;42.708;23.310;2024-03-23T05:22:55;95093.31;;;4.48;77.62
16451;BME280;12243;42.708;23.310;2024-03-23T05:25:21;95102.63;;;4.50;78.10
16451;BME280;12243;42.708;23.310;2024-03-23T05:27:48;95094.34;;;4.60;77.86
16451;BME280;12243;42.708;23.310;2024-03-23T05:30:14;95089.41;;;4.71;77.55
16451;BME280;12243;42.708;23.310;2024-03-23T05:32:43;95090.94;;;4.73;77.82
16451;BME280;12243;42.708;23.310;2024-03-23T05:35:09;95094.47;;;4.87;77.38
16451;BME280;12243;42.708;23.310;2024-03-23T05:37:36;95089.41;;;4.85;76.40
16451;BME280;12243;42.708;23.310;2024-03-23T05:40:03;95103.31;;;4.83;76.45
16451;BME280;12243;42.708;23.310;2024-03-23T05:42:30;95093.34;;;4.91;76.94
16451;BME280;12243;42.708;23.310;2024-03-23T05:44:56;95093.75;;;4.99;76.18
16451;BME280;12243;42.708;23.310;2024-03-23T05:47:24;95097.22;;;5.12;75.06
16451;BME280;12243;42.708;23.310;2024-03-23T05:49:51;95100.00;;;5.09;75.71
16451;BME280;12243;42.708;23.310;2024-03-23T05:52:18;95097.78;;;5.17;75.07
16451;BME280;12243;42.708;23.310;2024-03-23T05:54:46;95092.06;;;5.27;75.39
16451;BME280;12243;42.708;23.310;2024-03-23T05:57:13;95094.66;;;5.27;74.54
16451;BME280;12243;42.708;23.310;2024-03-23T05:59:40;95098.28;;;5.37;74.07
16451;BME280;12243;42.708;23.310;2024-03-23T06:02:06;95095.91;;;5.48;74.21
16451;BME280;12243;42.708;23.310;2024-03-23T06:04:36;95096.75;;;5.61;74.09
16451;BME280;12243;42.708;23.310;2024-03-23T06:07:03;95098.41;;;5.77;72.96
16451;BME280;12243;42.708;23.310;2024-03-23T06:09:31;95084.69;;;5.89;73.61
16451;BME280;12243;42.708;23.310;2024-03-23T06:11:57;95084.06;;;6.12;72.76
16451;BME280;12243;42.708;23.310;2024-03-23T06:14:24;95090.84;;;6.28;71.22
16451;BME280;12243;42.708;23.310;2024-03-23T06:16:50;95092.22;;;6.46;70.68
16451;BME280;12243;42.708;23.310;2024-03-23T06:19:17;95085.06;;;6.62;70.16
16451;BME280;12243;42.708;23.310;2024-03-23T06:21:43;95079.09;;;6.75;68.70
16451;BME280;12243;42.708;23.310;2024-03-23T06:24:12;95087.38;;;6.92;68.82
16451;BME280;12243;42.708;23.310;2024-03-23T06:26:38;95087.56;;;7.15;68.17
16451;BME280;12243;42.708;23.310;2024-03-23T06:29:05;95084.66;;;7.20;66.65
16451;BME280;12243;42.708;23.310;2024-03-23T06:31:31;95088.75;;;7.35;67.38
16451;BME280;12243;42.708;23.310;2024-03-23T06:33:57;95092.16;;;7.48;65.68
16451;BME280;12243;42.708;23.310;2024-03-23T06:36:23;95084.97;;;7.64;65.11
16451;BME280;12243;42.708;23.310;2024-03-23T06:38:50;95084.28;;;7.74;65.50
16451;BME280;12243;42.708;23.310;2024-03-23T06:41:18;95081.59;;;7.75;65.06
16451;BME280;12243;42.708;23.310;2024-03-23T06:43:45;95087.50;;;8.01;64.40
16451;BME280;12243;42.708;23.310;2024-03-23T06:46:11;95080.84;;;8.10;63.77
16451;BME280;12243;42.708;23.310;2024-03-23T06:48:38;95078.66;;;8.28;62.72
16451;BME280;12243;42.708;23.310;2024-03-23T06:51:05;95081.31;;;8.39;62.54
16451;BME280;12243;42.708;23.310;2024-03-23T06:53:32;95076.28;;;8.49;63.08
16451;BME280;12243;42.708;23.310;2024-03-23T06:55:58;95079.78;;;8.72;61.93
16451;BME280;12243;42.708;23.310;2024-03-23T06:58:26;95080.50;;;8.96;60.95
16451;BME280;12243;42.708;23.310;2024-03-23T07:00:53;95079.09;;;9.15;59.29
16451;BME280;12243;42.708;23.310;2024-03-23T07:03:19;95073.91;;;9.15;59.18
16451;BME280;12243;42.708;23.310;2024-03-23T07:05:46;95076.59;;;9.13;59.99
16451;BME280;12243;42.708;23.310;2024-03-23T07:08:12;95067.97;;;9.24;60.32
16451;BME280;12243;42.708;23.310;2024-03-23T07:10:44;95066.56;;;9.42;59.35
16451;BME280;12243;42.708;23.310;2024-03-23T07:13:10;95070.06;;;9.64;58.48
16451;BME280;12243;42.708;23.310;2024-03-23T07:15:39;95059.13;;;9.92;57.20
16451;BME280;12243;42.708;23.310;2024-03-23T07:18:05;95055.56;;;9.93;58.03
16451;BME280;12243;42.708;23.310;2024-03-23T07:20:32;95052.94;;;10.05;57.13
16451;BME280;12243;42.708;23.310;2024-03-23T07:22:57;95056.44;;;10.26;55.39
16451;BME280;12243;42.708;23.310;2024-03-23T07:25:24;95052.28;;;10.23;56.19
16451;BME280;12243;42.708;23.310;2024-03-23T07:27:53;95046.72;;;10.28;55.05
16451;BME280;12243;42.708;23.310;2024-03-23T07:30:20;95049.09;;;10.20;56.50
16451;BME280;12243;42.708;23.310;2024-03-23T07:32:47;95052.06;;;10.15;55.81
16451;BME280;12243;42.708;23.310;2024-03-23T07:35:14;95049.53;;;10.25;56.17
16451;BME280;12243;42.708;23.310;2024-03-23T07:37:40;95048.94;;;10.21;55.04
16451;BME280;12243;42.708;23.310;2024-03-23T07:40:08;95050.97;;;10.29;55.39
16451;BME280;12243;42.708;23.310;2024-03-23T07:42:34;95046.25;;;10.23;55.32
16451;BME280;12243;42.708;23.310;2024-03-23T07:45:01;95045.00;;;10.38;55.07
16451;BME280;12243;42.708;23.310;2024-03-23T07:47:27;95040.34;;;10.53;54.83
16451;BME280;12243;42.708;23.310;2024-03-23T07:49:55;95047.25;;;10.64;53.94
16451;BME280;12243;42.708;23.310;2024-03-23T07:52:21;95037.66;;;10.64;53.85
16451;BME280;12243;42.708;23.310;2024-03-23T07:54:48;95033.34;;;10.75;55.11
16451;BME280;12243;42.708;23.310;2024-03-23T07:57:14;95041.47;;;10.91;53.57
16451;BME280;12243;42.708;23.310;2024-03-23T07:59:41;95032.75;;;11.02;53.44
16451;BME280;12243;42.708;23.310;2024-03-23T08:02:07;95044.28;;;11.30;52.91
16451;BME280;12243;42.708;23.310;2024-03-23T08:04:33;95034.03;;;11.48;52.70
16451;BME280;12243;42.708;23.310;2024-03-23T08:07:01;95039.03;;;11.70;51.98
16451;BME280;12243;42.708;23.310;2024-03-23T08:09:27;95026.47;;;11.95;50.53
16451;BME280;12243;42.708;23.310;2024-03-23T08:11:53;95025.50;;;12.05;50.31
16451;BME280;12243;42.708;23.310;2024-03-23T08:14:20;95025.09;;;12.20;50.89
16451;BME280;12243;42.708;23.310;2024-03-23T08:16:46;95025.38;;;12.46;50.12
16451;BME280;12243;42.708;23.310;2024-03-23T08:19:14;95018.47;;;12.45;49.00
16451;BME280;12243;42.708;23.310;2024-03-23T08:21:40;95017.09;;;12.60;49.34
16451;BME280;12243;42.708;23.310;2024-03-23T08:24:09;95017.47;;;12.75;49.45
16451;BME280;12243;42.708;23.310;2024-03-23T08:26:35;95016.09;;;12.80;48.70
16451;BME280;12243;42.708;23.310;2024-03-23T08:29:03;95014.38;;;12.99;48.47
16451;BME280;12243;42.708;23.310;2024-03-23T08:31:29;95014.91;;;13.02;48.26
16451;BME280;12243;42.708;23.310;2024-03-23T08:33:56;95012.22;;;13.22;47.92
16451;BME280;12243;42.708;23.310;2024-03-23T08:36:22;95017.53;;;13.40;47.82
16451;BME280;12243;42.708;23.310;2024-03-23T08:38:49;95000.00;;;13.50;47.10
16451;BME280;12243;42.708;23.310;2024-03-23T08:41:20;95002.72;;;13.58;46.71
16451;BME280;12243;42.708;23.310;2024-03-23T08:43:47;94999.34;;;13.66;46.52
16451;BME280;12243;42.708;23.310;2024-03-23T08:46:14;95005.03;;;13.61;46.94
16451;BME280;12243;42.708;23.310;2024-03-23T08:48:42;94999.22;;;13.67;46.77
16451;BME280;12243;42.708;23.310;2024-03-23T08:51:10;94986.19;;;13.75;45.87
16451;BME280;12243;42.708;23.310;2024-03-23T08:53:37;94985.69;;;13.90;46.25
16451;BME280;12243;42.708;23.310;2024-03-23T08:56:04;94982.78;;;14.11;45.64
16451;BME280;12243;42.708;23.310;2024-03-23T08:58:35;94977.59;;;14.37;44.79
16451;BME280;12243;42.708;23.310;2024-03-23T09:01:04;94974.03;;;14.46;44.69
16451;BME280;12243;42.708;23.310;2024-03-23T09:03:31;94971.78;;;14.69;44.81
16451;BME280;12243;42.708;23.310;2024-03-23T09:05:57;94962.31;;;14.76;44.41
16451;BME280;12243;42.708;23.310;2024-03-23T09:08:24;94974.69;;;14.92;43.63
16451;BME280;12243;42.708;23.310;2024-03-23T09:10:51;94960.63;;;14.93;43.30
16451;BME280;12243;42.708;23.310;2024-03-23T09:13:18;94960.84;;;14.82;43.37
16451;BME280;12243;42.708;23.310;2024-03-23T09:15:50;94956.47;;;14.82;43.22
16451;BME280;12243;42.708;23.310;2024-03-23T09:18:21;94956.06;;;15.03;42.98
16451;BME280;12243;42.708;23.310;2024-03-23T09:20:47;94949.41;;;15.17;43.10
16451;BME280;12243;42.708;23.310;2024-03-23T09:23:14;94946.38;;;15.38;42.26
16451;BME280;12243;42.708;23.310;2024-03-23T09:25:40;94933.63;;;15.59;42.09
16451;BME280;12243;42.708;23.310;2024-03-23T09:28:07;94932.53;;;15.78;41.83
16451;BME280;12243;42.708;23.310;2024-03-23T09:30:34;94927.97;;;16.05;41.31
16451;BME280;12243;42.708;23.310;2024-03-23T09:33:03;94922.56;;;16.23;41.25
16451;BME280;12243;42.708;23.310;2024-03-23T09:35:29;94922.22;;;16.26;40.13
16451;BME280;12243;42.708;23.310;2024-03-23T09:37:57;94916.78;;;16.43;39.88
16451;BME280;12243;42.708;23.310;2024-03-23T09:40:23;94907.41;;;16.49;39.95
16451;BME280;12243;42.708;23.310;2024-03-23T09:42:50;94903.78;;;16.58;40.00
16451;BME280;12243;42.708;23.310;2024-03-23T09:45:21;94910.06;;;16.33;39.25
16451;BME280;12243;42.708;23.310;2024-03-23T09:47:49;94895.59;;;16.37;39.94
16451;BME280;12243;42.708;23.310;2024-03-23T09:50:18;94896.72;;;16.51;39.39
16451;BME280;12243;42.708;23.310;2024-03-23T09:52:45;94884.66;;;16.73;38.82
16451;BME280;12243;42.708;23.310;2024-03-23T09:55:12;94885.88;;;16.54;38.97
16451;BME280;12243;42.708;23.310;2024-03-23T09:57:39;94882.78;;;16.50;39.55
16451;BME280;12243;42.708;23.310;2024-03-23T10:00:07;94868.91;;;16.81;38.34
16451;BME280;12243;42.708;23.310;2024-03-23T10:02:34;94869.44;;;17.16;38.48
16451;BME280;12243;42.708;23.310;2024-03-23T10:05:00;94872.97;;;17.31;37.11
16451;BME280;12243;42.708;23.310;2024-03-23T10:07:28;94859.38;;;17.50;36.88
16451;BME280;12243;42.708;23.310;2024-03-23T10:09:56;94860.66;;;17.54;36.69
16451;BME280;12243;42.708;23.310;2024-03-23T10:12:23;94861.28;;;17.56;36.80
16451;BME280;12243;42.708;23.310;2024-03-23T10:14:52;94859.78;;;17.62;35.58
16451;BME280;12243;42.708;23.310;2024-03-23T10:17:19;94855.59;;;17.68;36.48
16451;BME280;12243;42.708;23.310;2024-03-23T10:19:46;94844.56;;;17.95;35.77
16451;BME280;12243;42.708;23.310;2024-03-23T10:22:14;94843.94;;;18.08;35.46
16451;BME280;12243;42.708;23.310;2024-03-23T10:24:43;94835.09;;;18.24;35.62
16451;BME280;12243;42.708;23.310;2024-03-23T10:27:08;94834.94;;;18.02;35.92
16451;BME280;12243;42.708;23.310;2024-03-23T10:29:35;94828.13;;;17.93;36.00
16451;BME280;12243;42.708;23.310;2024-03-23T10:32:08;94831.25;;;18.12;35.89
16451;BME280;12243;42.708;23.310;2024-03-23T10:34:36;94823.44;;;18.33;35.30
16451;BME280;12243;42.708;23.310;2024-03-23T10:37:02;94823.75;;;18.38;34.09
16451;BME280;12243;42.708;23.310;2024-03-23T10:39:33;94804.63;;;18.36;34.26
16451;BME280;12243;42.708;23.310;2024-03-23T10:42:02;94811.63;;;18.44;34.87
16451;BME280;12243;42.708;23.310;2024-03-23T10:44:29;94807.09;;;18.52;33.68
16451;BME280;12243;42.708;23.310;2024-03-23T10:46:57;94795.06;;;18.65;33.84
16451;BME280;12243;42.708;23.310;2024-03-23T10:49:27;94801.56;;;18.77;33.81
16451;BME280;12243;42.708;23.310;2024-03-23T10:51:57;94787.31;;;19.08;32.94
16451;BME280;12243;42.708;23.310;2024-03-23T10:54:25;94779.53;;;19.21;32.73
16451;BME280;12243;42.708;23.310;2024-03-23T10:56:53;94777.28;;;19.18;32.20
16451;BME280;12243;42.708;23.310;2024-03-23T10:59:23;94769.75;;;19.00;33.04
16451;BME280;12243;42.708;23.310;2024-03-23T11:01:56;94753.97;;;19.43;32.02
16451;BME280;12243;42.708;23.310;2024-03-23T11:04:29;94756.25;;;19.67;31.47
16451;BME280;12243;42.708;23.310;2024-03-23T11:06:56;94745.81;;;19.87;31.07
16451;BME280;12243;42.708;23.310;2024-03-23T11:09:41;94747.09;;;19.91;31.11
16451;BME280;12243;42.708;23.310;2024-03-23T11:12:29;94738.31;;;20.19;31.07
16451;BME280;12243;42.708;23.310;2024-03-23T11:15:02;94728.66;;;20.39;30.77
16451;BME280;12243;42.708;23.310;2024-03-23T11:17:29;94722.28;;;20.62;30.23
16451;BME280;12243;42.708;23.310;2024-03-23T11:19:57;94714.59;;;20.74;30.13
16451;BME280;12243;42.708;23.310;2024-03-23T11:22:42;94712.94;;;20.66;30.50
16451;BME280;12243;42.708;23.310;2024-03-23T11:25:16;94701.16;;;20.68;30.10
16451;BME280;12243;42.708;23.310;2024-03-23T11:27:43;94707.66;;;20.73;29.50
16451;BME280;12243;42.708;23.310;2024-03-23T11:30:16;94706.44;;;20.68;29.68
16451;BME280;12243;42.708;23.310;2024-03-23T11:32:44;94695.94;;;20.47;29.71
16451;BME280;12243;42.708;23.310;2024-03-23T11:35:24;94693.13;;;20.14;29.99
16451;BME280;12243;42.708;23.310;2024-03-23T11:38:02;94687.91;;;20.27;29.90
16451;BME280;12243;42.708;23.310;2024-03-23T11:40:29;94679.88;;;20.49;29.89
16451;BME280;12243;42.708;23.310;2024-03-23T11:42:55;94678.75;;;20.71;29.12
16451;BME280;12243;42.708;23.310;2024-03-23T11:45:24;94669.41;;;20.75;29.12
16451;BME280;12243;42.708;23.310;2024-03-23T11:48:02;94665.38;;;20.86;28.81
16451;BME280;12243;42.708;23.310;2024-03-23T11:50:29;94655.97;;;20.77;28.84
16451;BME280;12243;42.708;23.310;2024-03-23T11:53:09;94653.28;;;20.22;29.28
16451;BME280;12243;42.708;23.310;2024-03-23T11:55:46;94648.16;;;20.14;29.61
16451;BME280;12243;42.708;23.310;2024-03-23T11:58:14;94643.22;;;20.45;29.50
16451;BME280;12243;42.708;23.310;2024-03-23T12:00:41;94638.88;;;20.79;29.59
16451;BME280;12243;42.708;23.310;2024-03-23T12:03:08;94633.19;;;21.02;28.40
16451;BME280;12243;42.708;23.310;2024-03-23T12:05:36;94622.59;;;21.02;28.45
16451;BME280;12243;42.708;23.310;2024-03-23T12:08:20;94624.25;;;20.97;28.57
16451;BME280;12243;42.708;23.310;2024-03-23T12:10:48;94618.09;;;20.69;28.73
16451;BME280;12243;42.708;23.310;2024-03-23T12:13:19;94616.03;;;20.65;29.08
16451;BME280;12243;42.708;23.310;2024-03-23T12:15:49;94617.09;;;20.90;28.89
16451;BME280;12243;42.708;23.310;2024-03-23T12:18:16;94601.84;;;21.12;28.79
16451;BME280;12243;42.708;23.310;2024-03-23T12:20:42;94603.50;;;21.47;28.23
16451;BME280;12243;42.708;23.310;2024-03-23T12:23:11;94604.28;;;21.67;27.82
16451;BME280;12243;42.708;23.310;2024-03-23T12:25:39;94601.44;;;21.22;27.64
16451;BME280;12243;42.708;23.310;2024-03-23T12:28:07;94596.16;;;21.22;27.92
16451;BME280;12243;42.708;23.310;2024-03-23T12:30:34;94596.13;;;21.09;27.49
16451;BME280;12243;42.708;23.310;2024-03-23T12:33:03;94584.72;;;21.08;27.40
16451;BME280;12243;42.708;23.310;2024-03-23T12:35:29;94591.66;;;20.89;27.46
16451;BME280;12243;42.708;23.310;2024-03-23T12:37:56;94579.03;;;20.78;27.58
16451;BME280;12243;42.708;23.310;2024-03-23T12:40:22;94576.59;;;21.10;27.40
16451;BME280;12243;42.708;23.310;2024-03-23T12:42:49;94572.91;;;21.57;27.07
16451;BME280;12243;42.708;23.310;2024-03-23T12:45:15;94564.69;;;21.72;25.92
16451;BME280;12243;42.708;23.310;2024-03-23T12:47:42;94563.94;;;21.58;25.67
16451;BME280;12243;42.708;23.310;2024-03-23T12:50:09;94566.53;;;21.78;26.00
16451;BME280;12243;42.708;23.310;2024-03-23T12:52:37;94563.44;;;21.95;25.38
16451;BME280;12243;42.708;23.310;2024-03-23T12:55:03;94554.06;;;21.85;24.04
16451;BME280;12243;42.708;23.310;2024-03-23T12:57:31;94551.50;;;21.32;22.63
16451;BME280;12243;42.708;23.310;2024-03-23T13:02:23;94533.38;;;21.56;21.92
16451;BME280;12243;42.708;23.310;2024-03-23T13:04:50;94537.28;;;21.13;22.29
16451;BME280;12243;42.708;23.310;2024-03-23T13:07:19;94531.38;;;21.11;22.02
16451;BME280;12243;42.708;23.310;2024-03-23T13:09:45;94535.03;;;21.17;22.42
16451;BME280;12243;42.708;23.310;2024-03-23T13:12:12;94524.00;;;21.33;22.10
16451;BME280;12243;42.708;23.310;2024-03-23T13:14:38;94530.91;;;21.48;21.92
16451;BME280;12243;42.708;23.310;2024-03-23T13:17:05;94532.16;;;21.18;22.04
16451;BME280;12243;42.708;23.310;2024-03-23T13:19:31;94518.34;;;20.77;22.29
16451;BME280;12243;42.708;23.310;2024-03-23T13:21:59;94518.25;;;20.30;22.70
16451;BME280;12243;42.708;23.310;2024-03-23T13:24:27;94512.38;;;20.41;23.26
16451;BME280;12243;42.708;23.310;2024-03-23T13:26:55;94500.44;;;20.72;22.98
16451;BME280;12243;42.708;23.310;2024-03-23T13:29:21;94504.88;;;21.05;22.60
16451;BME280;12243;42.708;23.310;2024-03-23T13:31:50;94504.25;;;21.43;22.40
16451;BME280;12243;42.708;23.310;2024-03-23T13:34:16;94499.66;;;21.76;22.41
16451;BME280;12243;42.708;23.310;2024-03-23T13:36:44;94497.88;;;21.57;21.99
16451;BME280;12243;42.708;23.310;2024-03-23T13:39:10;94498.78;;;21.37;21.88
16451;BME280;12243;42.708;23.310;2024-03-23T13:41:43;94492.66;;;21.10;22.27
16451;BME280;12243;42.708;23.310;2024-03-23T13:44:09;94492.66;;;21.24;22.16
16451;BME280;12243;42.708;23.310;2024-03-23T13:46:37;94483.28;;;21.41;22.56
16451;BME280;12243;42.708;23.310;2024-03-23T13:49:03;94483.63;;;21.51;21.94
16451;BME280;12243;42.708;23.310;2024-03-23T13:51:30;94486.91;;;21.47;22.26